Time;durP1;ratioP1;P1;durP2;ratioP2;P2;SDS_P1;SDS_P2;PMS_P1;PMS_P2;Temp;Humidity;BMP_temperature;BMP_pressure;BME280_temperature;BME280_humidity;BME280_pressure;Samples;Min_cycle;Max_cycle;Signal;HPM_P1;HPM_P2
2021/05/31 00:01:44;;;;;;;5.60;5.00;;;;;12.70;101796.00;;;;10526749;28;20729;-76
2021/05/31 00:07:01;;;;;;;5.13;4.63;;;;;12.60;101784.00;;;;10507720;28;20284;-76
2021/05/31 00:12:05;;;;;;;6.80;4.70;;;;;12.50;101787.00;;;;10515227;28;20267;-76
2021/05/31 00:17:08;;;;;;;6.13;4.50;;;;;12.40;101785.00;;;;10496653;28;20201;-76
2021/05/31 00:22:09;;;;;;;7.20;4.13;;;;;12.30;101785.00;;;;10502585;28;20732;-76
2021/05/31 00:27:11;;;;;;;5.13;4.60;;;;;12.20;101781.00;;;;10450822;28;20229;-76
2021/05/31 00:32:13;;;;;;;6.63;4.73;;;;;12.10;101783.00;;;;10504906;28;20221;-76
2021/05/31 00:37:16;;;;;;;7.70;5.07;;;;;12.00;101776.00;;;;10485410;28;20190;-77
2021/05/31 00:42:18;;;;;;;5.77;4.87;;;;;12.00;101770.00;;;;10474044;28;20247;-76
2021/05/31 00:47:25;;;;;;;5.80;4.70;;;;;11.90;101769.00;;;;10456214;28;20193;-76
2021/05/31 00:52:28;;;;;;;5.70;5.10;;;;;11.80;101775.00;;;;10492333;28;20196;-77
2021/05/31 00:57:30;;;;;;;5.77;5.07;;;;;11.70;101775.00;;;;10507962;28;20265;-76
2021/05/31 01:02:32;;;;;;;6.23;5.23;;;;;11.70;101781.00;;;;10524244;28;20205;-76
2021/05/31 01:07:41;;;;;;;5.73;5.20;;;;;11.70;101779.00;;;;10458119;28;20202;-76
2021/05/31 01:13:01;;;;;;;6.87;6.17;;;;;11.60;101779.00;;;;10490350;28;20189;-76
2021/05/31 01:18:18;;;;;;;10.07;5.20;;;;;11.50;101776.00;;;;10504190;28;20245;-76
2021/05/31 01:23:21;;;;;;;6.43;5.10;;;;;11.40;101775.00;;;;10489140;28;20698;-76
2021/05/31 01:28:34;;;;;;;6.83;6.03;;;;;11.30;101774.00;;;;10522696;28;20288;-76
2021/05/31 01:33:36;;;;;;;6.03;5.40;;;;;11.20;101776.00;;;;10504752;28;20216;-76
2021/05/31 01:38:40;;;;;;;10.23;5.97;;;;;11.10;101772.00;;;;10532782;28;20205;-77
2021/05/31 01:43:44;;;;;;;8.07;5.40;;;;;11.00;101774.00;;;;10479862;28;20709;-76
2021/05/31 01:48:51;;;;;;;9.77;6.50;;;;;10.90;101778.00;;;;10483649;28;20185;-77
2021/05/31 01:53:53;;;;;;;7.80;6.43;;;;;10.80;101778.00;;;;10480690;28;20201;-77
2021/05/31 01:58:55;;;;;;;6.33;5.70;;;;;10.70;101784.00;;;;10473012;28;20644;-77
2021/05/31 02:03:57;;;;;;;7.67;5.80;;;;;10.60;101778.00;;;;10515849;28;20185;-77
2021/05/31 02:08:59;;;;;;;9.30;6.30;;;;;10.50;101776.00;;;;10473198;28;20194;-77
2021/05/31 02:14:06;;;;;;;7.00;6.30;;;;;10.50;101775.00;;;;10499352;28;20684;-77
2021/05/31 02:19:10;;;;;;;6.77;6.07;;;;;10.50;101784.00;;;;10505029;28;20217;-77
2021/05/31 02:24:12;;;;;;;12.03;6.93;;;;;10.50;101776.00;;;;10453238;28;20303;-77
2021/05/31 02:29:15;;;;;;;8.70;6.60;;;;;10.50;101775.00;;;;10464028;28;20649;-77
2021/05/31 02:34:17;;;;;;;10.17;6.70;;;;;10.40;101778.00;;;;10465351;28;20216;-77
2021/05/31 02:39:19;;;;;;;10.17;6.43;;;;;10.40;101784.00;;;;10473665;28;20190;-77
2021/05/31 02:44:20;;;;;;;7.00;6.30;;;;;10.30;101775.00;;;;10507842;28;20223;-77
2021/05/31 02:49:23;;;;;;;12.23;7.17;;;;;10.30;101774.00;;;;10521270;28;20268;-77
2021/05/31 02:54:25;;;;;;;8.60;7.10;;;;;10.20;101793.00;;;;10479570;28;20218;-77
2021/05/31 02:59:27;;;;;;;9.33;7.47;;;;;10.20;101775.00;;;;10446527;28;20189;-77
2021/05/31 03:04:29;;;;;;;9.47;7.07;;;;;10.20;101783.00;;;;10479825;28;20193;-77
2021/05/31 03:09:31;;;;;;;8.60;6.77;;;;;10.20;101786.00;;;;10488225;28;20243;-77
2021/05/31 03:14:32;;;;;;;8.87;7.20;;;;;10.10;101781.00;;;;10515001;28;20196;-77
2021/05/31 03:19:34;;;;;;;10.83;7.57;;;;;10.10;101787.00;;;;10470581;28;20228;-77
2021/05/31 03:24:36;;;;;;;11.87;7.20;;;;;10.10;101787.00;;;;10479074;28;20242;-77
2021/05/31 03:29:38;;;;;;;7.37;6.17;;;;;10.00;101786.00;;;;10486193;28;20212;-77
2021/05/31 03:34:40;;;;;;;11.93;7.23;;;;;9.90;101778.00;;;;10527753;28;20267;-77
2021/05/31 03:39:42;;;;;;;9.37;7.00;;;;;9.90;101792.00;;;;10494818;28;20540;-77
2021/05/31 03:44:44;;;;;;;13.53;7.77;;;;;9.80;101786.00;;;;10495508;28;20517;-77
2021/05/31 03:49:45;;;;;;;10.13;7.40;;;;;9.80;101784.00;;;;10477214;28;20189;-77
2021/05/31 03:54:47;;;;;;;10.03;7.30;;;;;9.90;101779.00;;;;10504764;28;20215;-77
2021/05/31 03:59:51;;;;;;;15.93;8.10;;;;;10.00;101780.00;;;;10490061;28;20808;-76
2021/05/31 04:04:54;;;;;;;10.73;7.73;;;;;10.20;101784.00;;;;10526592;28;20196;-77
2021/05/31 04:15:16;;;;;;;8.47;7.40;;;;;10.70;101797.00;;;;10482587;28;20247;-77
2021/05/31 04:20:19;;;;;;;10.27;7.77;;;;;10.90;101792.00;;;;10503380;28;20292;-77
2021/05/31 04:25:23;;;;;;;10.13;8.70;;;;;11.10;101792.00;;;;10495401;28;20655;-77
2021/05/31 04:30:25;;;;;;;11.53;8.17;;;;;11.20;101800.00;;;;10471043;28;20217;-77
2021/05/31 04:35:27;;;;;;;9.90;8.23;;;;;11.30;101800.00;;;;10511808;28;20221;-77
2021/05/31 04:40:29;;;;;;;11.07;7.70;;;;;11.40;101805.00;;;;10508892;28;20197;-77
2021/05/31 04:45:30;;;;;;;10.63;8.47;;;;;11.60;101816.00;;;;10508867;28;20194;-77
2021/05/31 04:50:32;;;;;;;10.30;8.27;;;;;11.80;101809.00;;;;10493174;28;20713;-77
2021/05/31 04:55:36;;;;;;;10.10;8.00;;;;;12.20;101807.00;;;;10503465;28;20197;-77
2021/05/31 05:00:38;;;;;;;8.40;7.37;;;;;12.50;101813.00;;;;10490832;28;20177;-77
2021/05/31 05:05:40;;;;;;;10.20;7.70;;;;;12.80;101823.00;;;;10507516;28;20196;-77
2021/05/31 05:10:43;;;;;;;8.53;7.47;;;;;13.20;101816.00;;;;10492607;28;20189;-77
2021/05/31 05:15:44;;;;;;;10.73;7.77;;;;;13.70;101822.00;;;;10507755;28;20237;-77
2021/05/31 05:20:46;;;;;;;13.37;8.67;;;;;14.10;101815.00;;;;10506281;28;20552;-77
2021/05/31 05:25:48;;;;;;;8.47;7.57;;;;;14.60;101818.00;;;;10492720;28;20649;-77
2021/05/31 05:30:51;;;;;;;14.27;8.00;;;;;15.10;101825.00;;;;10504562;28;20299;-77
2021/05/31 05:35:57;;;;;;;10.57;8.27;;;;;15.60;101819.00;;;;10504841;28;20223;-77
2021/05/31 05:51:24;;;;;;;12.30;7.73;;;;;17.00;101811.00;;;;10505007;28;20189;-78
2021/05/31 05:56:26;;;;;;;13.07;7.83;;;;;17.30;101806.00;;;;10525425;28;20204;-77
2021/05/31 06:01:28;;;;;;;11.00;7.77;;;;;17.60;101797.00;;;;10508591;28;20193;-77
2021/05/31 06:06:30;;;;;;;11.73;8.03;;;;;18.00;101793.00;;;;10499533;28;20189;-78
2021/05/31 06:11:32;;;;;;;8.70;7.07;;;;;18.30;101792.00;;;;10464653;28;20186;-77
2021/05/31 06:16:34;;;;;;;11.57;7.15;;;;;18.70;101782.00;;;;10496194;28;20828;-77
2021/05/31 06:21:35;;;;;;;9.32;7.47;;;;;19.00;101779.00;;;;10446777;28;20211;-78
2021/05/31 06:26:38;;;;;;;10.93;7.30;;;;;19.40;101771.00;;;;10497460;28;20196;-78
2021/05/31 06:31:40;;;;;;;8.63;7.28;;;;;19.70;101773.00;;;;10519556;28;20233;-77
2021/05/31 06:36:42;;;;;;;12.60;7.15;;;;;20.20;101774.00;;;;10480777;28;20235;-79
2021/05/31 06:41:43;;;;;;;7.68;6.82;;;;;20.60;101762.00;;;;10463952;28;20228;-77
2021/05/31 06:46:45;;;;;;;10.65;6.97;;;;;21.00;101763.00;;;;10477502;28;20682;-77
2021/05/31 06:51:47;;;;;;;8.63;6.72;;;;;21.30;101763.00;;;;10538516;28;20551;-77
2021/05/31 06:56:49;;;;;;;8.30;7.03;;;;;21.60;101760.00;;;;10514495;28;20220;-77
2021/05/31 07:01:51;;;;;;;10.20;7.10;;;;;22.00;101760.00;;;;10523900;28;20287;-77
2021/05/31 07:06:53;;;;;;;9.80;7.20;;;;;22.20;101768.00;;;;10502530;28;20213;-77
2021/05/31 07:11:55;;;;;;;9.80;6.75;;;;;22.40;101763.00;;;;10487760;28;20643;-77
2021/05/31 07:16:56;;;;;;;13.70;7.00;;;;;22.80;101769.00;;;;10502404;28;20259;-77
2021/05/31 07:21:59;;;;;;;7.85;6.50;;;;;23.00;101771.00;;;;10507132;28;20186;-77
2021/05/31 07:27:02;;;;;;;8.18;5.82;;;;;23.30;101767.00;;;;10517428;28;20170;-77
2021/05/31 07:32:06;;;;;;;10.18;6.68;;;;;23.90;101761.00;;;;10514856;28;20225;-78
2021/05/31 07:37:09;;;;;;;9.35;6.18;;;;;24.30;101764.00;;;;10477761;28;20209;-77
2021/05/31 07:42:11;;;;;;;13.30;5.70;;;;;24.50;101757.00;;;;10487947;28;20278;-77
2021/05/31 07:47:13;;;;;;;10.25;5.97;;;;;24.80;101754.00;;;;10479254;28;20816;-77
2021/05/31 07:52:23;;;;;;;8.07;5.97;;;;;25.10;101746.00;;;;10496122;28;20247;-77
2021/05/31 07:57:26;;;;;;;9.07;5.18;;;;;25.40;101747.00;;;;10501850;28;20708;-77
2021/05/31 08:02:27;;;;;;;9.68;4.80;;;;;25.80;101748.00;;;;10497480;28;20213;-77
2021/05/31 08:07:29;;;;;;;6.80;4.43;;;;;26.00;101738.00;;;;10483186;28;20224;-76
2021/05/31 08:12:32;;;;;;;7.35;4.43;;;;;26.20;101740.00;;;;10490881;28;20284;-78
2021/05/31 08:17:34;;;;;;;7.18;4.80;;;;;26.30;101740.00;;;;10501786;28;20189;-77
2021/05/31 08:22:38;;;;;;;6.03;5.00;;;;;26.70;101733.00;;;;10509391;28;20227;-77
2021/05/31 08:27:46;;;;;;;4.30;3.90;;;;;27.30;101731.00;;;;10480486;28;20185;-77
2021/05/31 08:32:48;;;;;;;5.85;3.85;;;;;27.90;101738.00;;;;10523087;28;20221;-77
2021/05/31 08:37:51;;;;;;;6.47;3.95;;;;;27.80;101739.00;;;;10505379;28;20224;-77
2021/05/31 08:42:53;;;;;;;4.50;3.25;;;;;28.10;101740.00;;;;10483625;28;20192;-77
2021/05/31 08:47:56;;;;;;;4.47;3.30;;;;;28.60;101740.00;;;;10510538;28;20643;-77
2021/05/31 08:52:58;;;;;;;6.60;3.58;;;;;29.00;101736.00;;;;10489282;28;20202;-77
2021/05/31 08:58:02;;;;;;;5.78;3.67;;;;;28.90;101723.00;;;;10467004;28;20212;-77
2021/05/31 09:03:08;;;;;;;6.07;2.92;;;;;28.90;101721.00;;;;10482381;28;20182;-77
2021/05/31 09:08:15;;;;;;;3.90;3.00;;;;;28.90;101711.00;;;;10490473;28;20209;-77
2021/05/31 09:13:40;;;;;;;4.95;3.00;;;;;29.20;101709.00;;;;10503014;28;20205;-77
2021/05/31 09:18:52;;;;;;;6.65;2.92;;;;;29.10;101706.00;;;;10494602;28;20189;-78
2021/05/31 09:23:59;;;;;;;4.95;2.92;;;;;28.90;101707.00;;;;10470817;28;20199;-77
2021/05/31 09:29:04;;;;;;;4.60;3.00;;;;;29.30;101694.00;;;;10479968;28;20281;-77
2021/05/31 09:34:12;;;;;;;4.75;3.25;;;;;29.50;101696.00;;;;10464592;28;20303;-77
2021/05/31 09:39:14;;;;;;;6.72;3.08;;;;;29.00;101699.00;;;;10510983;28;20219;-77
2021/05/31 09:44:16;;;;;;;7.05;3.42;;;;;28.80;101707.00;;;;10491338;28;20178;-77
2021/05/31 09:49:20;;;;;;;3.88;3.15;;;;;28.30;101685.00;;;;10504836;28;20203;-77
2021/05/31 09:54:42;;;;;;;3.67;2.80;;;;;29.20;101682.00;;;;10512708;28;20202;-77
2021/05/31 09:59:59;;;;;;;6.45;3.15;;;;;29.20;101676.00;;;;10493348;28;20657;-77
2021/05/31 10:05:27;;;;;;;3.97;2.88;;;;;29.00;101678.00;;;;10502595;28;20193;-77
2021/05/31 10:10:30;;;;;;;5.15;3.50;;;;;29.10;101681.00;;;;10520041;28;20559;-77
2021/05/31 10:15:36;;;;;;;4.60;2.95;;;;;29.40;101671.00;;;;10537508;28;20200;-77
2021/05/31 10:20:38;;;;;;;3.88;3.20;;;;;29.50;101676.00;;;;10509866;28;20243;-77
2021/05/31 10:25:45;;;;;;;3.78;2.92;;;;;29.00;101674.00;;;;10465092;28;20259;-77
2021/05/31 10:30:57;;;;;;;3.28;2.95;;;;;29.40;101665.00;;;;10536497;28;20185;-77
2021/05/31 10:36:20;;;;;;;4.70;3.15;;;;;29.70;101663.00;;;;10522147;28;20217;-77
2021/05/31 10:41:24;;;;;;;5.70;2.97;;;;;29.70;101657.00;;;;10503876;28;20195;-77
2021/05/31 10:46:34;;;;;;;4.05;3.00;;;;;29.40;101650.00;;;;10465360;28;20213;-78
2021/05/31 10:51:41;;;;;;;7.75;3.72;;;;;28.20;101657.00;;;;10476633;28;20219;-78
2021/05/31 10:56:47;;;;;;;4.70;3.10;;;;;29.30;101648.00;;;;10517973;28;20277;-77
2021/05/31 11:01:51;;;;;;;5.28;2.85;;;;;29.70;101637.00;;;;10472557;28;20264;-78
2021/05/31 11:06:55;;;;;;;4.30;3.25;;;;;30.20;101638.00;;;;10490700;28;20746;-78
2021/05/31 11:12:00;;;;;;;5.95;3.17;;;;;30.70;101629.00;;;;10506600;28;20232;-78
2021/05/31 11:17:08;;;;;;;4.70;3.00;;;;;30.60;101622.00;;;;10508241;28;20243;-77
2021/05/31 11:22:25;;;;;;;6.22;3.50;;;;;30.40;101623.00;;;;10463028;28;20209;-77
2021/05/31 11:27:34;;;;;;;4.93;3.42;;;;;30.60;101599.00;;;;10507782;28;20228;-78
2021/05/31 11:32:37;;;;;;;4.88;3.50;;;;;30.70;101599.00;;;;10492802;28;20298;-77
2021/05/31 11:37:40;;;;;;;5.72;3.35;;;;;29.90;101594.00;;;;10496453;28;20185;-77
2021/05/31 11:42:48;;;;;;;4.63;3.50;;;;;28.80;101605.00;;;;10450423;28;20530;-77
2021/05/31 11:47:56;;;;;;;4.20;3.08;;;;;29.80;101578.00;;;;10476991;28;20213;-77
2021/05/31 11:52:57;;;;;;;3.58;2.88;;;;;30.00;101578.00;;;;10513760;28;20189;-77
2021/05/31 11:58:01;;;;;;;5.40;3.50;;;;;29.60;101584.00;;;;10491778;28;20289;-77
2021/05/31 12:03:04;;;;;;;5.20;3.03;;;;;27.70;101581.00;;;;10527792;28;20200;-77
2021/05/31 12:08:11;;;;;;;4.25;3.42;;;;;27.80;101568.00;;;;10476975;28;20197;-78
2021/05/31 12:13:14;;;;;;;4.75;3.40;;;;;28.40;101557.00;;;;10499430;28;20699;-77
2021/05/31 12:18:20;;;;;;;5.90;2.90;;;;;29.20;101554.00;;;;10449459;28;20590;-78
2021/05/31 12:23:23;;;;;;;4.93;3.17;;;;;29.60;101558.00;;;;10496510;28;20213;-77
2021/05/31 12:28:29;;;;;;;4.38;3.13;;;;;29.50;101556.00;;;;10512173;28;20220;-77
2021/05/31 12:33:31;;;;;;;4.30;3.15;;;;;29.30;101545.00;;;;10527854;28;20217;-77
2021/05/31 12:38:33;;;;;;;3.90;3.10;;;;;29.50;101544.00;;;;10495360;28;20209;-77
2021/05/31 12:44:08;;;;;;;4.75;3.08;;;;;29.60;101534.00;;;;10527336;28;20209;-77
2021/05/31 12:49:12;;;;;;;3.25;2.95;;;;;28.50;101522.00;;;;10527294;28;20181;-77
2021/05/31 12:54:17;;;;;;;2.80;2.60;;;;;30.00;101527.00;;;;10541740;28;20229;-78
2021/05/31 12:59:25;;;;;;;5.25;3.35;;;;;29.90;101529.00;;;;10522519;28;20185;-77
2021/05/31 13:04:30;;;;;;;3.28;2.88;;;;;30.60;101526.00;;;;10486433;28;20313;-78
2021/05/31 13:09:36;;;;;;;2.95;2.72;;;;;31.10;101518.00;;;;10544557;28;20189;-77
2021/05/31 13:14:43;;;;;;;4.10;2.55;;;;;31.50;101516.00;;;;10510133;28;20189;-78
2021/05/31 13:19:45;;;;;;;5.07;3.22;;;;;32.10;101510.00;;;;10508477;28;20216;-78
2021/05/31 13:24:50;;;;;;;6.47;3.50;;;;;31.20;101502.00;;;;10525495;28;20691;-77
2021/05/31 13:30:00;;;;;;;5.28;3.20;;;;;33.30;101501.00;;;;10525024;28;20651;-77
2021/05/31 13:35:06;;;;;;;6.53;3.38;;;;;33.20;101504.00;;;;10491906;28;20224;-77
2021/05/31 13:40:09;;;;;;;4.32;3.17;;;;;33.40;101493.00;;;;10508873;28;20276;-77
2021/05/31 13:45:11;;;;;;;6.28;2.85;;;;;34.50;101494.00;;;;10508383;28;20643;-77
2021/05/31 13:50:21;;;;;;;4.07;3.03;;;;;35.50;101474.00;;;;10544258;28;20200;-77
2021/05/31 13:55:24;;;;;;;3.00;2.70;;;;;35.90;101476.00;;;;10506089;28;20201;-77
2021/05/31 14:00:28;;;;;;;5.38;2.70;;;;;36.80;101470.00;;;;10507247;28;20232;-77
2021/05/31 14:05:33;;;;;;;6.88;3.50;;;;;37.50;101468.00;;;;10524054;28;20300;-77
2021/05/31 14:10:36;;;;;;;6.03;3.53;;;;;37.00;101460.00;;;;10506798;28;20193;-77
2021/05/31 14:15:39;;;;;;;4.45;3.42;;;;;37.10;101453.00;;;;10506419;28;20191;-77
2021/05/31 14:20:41;;;;;;;6.55;3.72;;;;;37.40;101445.00;;;;10524250;28;20204;-77
2021/05/31 14:25:43;;;;;;;4.72;4.00;;;;;37.50;101434.00;;;;10507003;28;20251;-77
2021/05/31 14:30:45;;;;;;;6.20;3.50;;;;;37.60;101429.00;;;;10506805;28;20197;-76
2021/05/31 14:35:47;;;;;;;5.03;3.50;;;;;37.90;101427.00;;;;10523102;28;20623;-77
2021/05/31 14:40:48;;;;;;;5.53;3.80;;;;;38.20;101429.00;;;;10541566;28;20185;-77
2021/05/31 14:45:50;;;;;;;4.15;3.72;;;;;38.40;101424.00;;;;10506232;28;20205;-77
2021/05/31 14:50:52;;;;;;;5.57;3.60;;;;;38.60;101422.00;;;;10490123;28;20189;-77
2021/05/31 14:55:54;;;;;;;4.38;3.63;;;;;38.60;101416.00;;;;10485795;28;20200;-77
2021/05/31 15:00:56;;;;;;;3.80;3.50;;;;;39.00;101410.00;;;;10513323;28;20232;-76
2021/05/31 15:05:59;;;;;;;5.45;3.72;;;;;39.40;101415.00;;;;10542150;28;20197;-76
2021/05/31 15:11:02;;;;;;;4.85;3.80;;;;;39.50;101412.00;;;;10523947;28;20216;-76
2021/05/31 15:16:04;;;;;;;5.70;3.60;;;;;39.40;101406.00;;;;10524607;28;20209;-77
2021/05/31 15:21:06;;;;;;;4.18;3.50;;;;;39.30;101383.00;;;;10506572;28;20193;-77
2021/05/31 15:26:08;;;;;;;7.63;3.80;;;;;39.50;101384.00;;;;10530449;28;20616;-76
2021/05/31 15:31:12;;;;;;;5.00;3.20;;;;;39.40;101381.00;;;;10530517;28;20185;-77
2021/05/31 15:36:14;;;;;;;5.70;3.15;;;;;39.10;101371.00;;;;10513522;28;20196;-77
2021/05/31 15:41:16;;;;;;;6.03;3.28;;;;;39.10;101371.00;;;;10513124;28;20292;-77
2021/05/31 15:46:17;;;;;;;5.07;3.13;;;;;35.70;101371.00;;;;10513891;28;20212;-76
2021/05/31 15:51:19;;;;;;;6.45;3.25;;;;;32.90;101363.00;;;;10530626;28;20601;-77
2021/05/31 15:56:22;;;;;;;5.35;3.55;;;;;30.90;101358.00;;;;10529469;28;20551;-77
2021/05/31 16:01:24;;;;;;;6.35;3.25;;;;;32.00;101335.00;;;;10547755;28;20250;-76
2021/05/31 16:06:26;;;;;;;5.43;3.80;;;;;30.10;101337.00;;;;10511915;28;20197;-77
2021/05/31 16:11:28;;;;;;;5.43;3.40;;;;;27.90;101344.00;;;;10494385;28;20189;-77
2021/05/31 16:16:30;;;;;;;6.10;4.07;;;;;27.00;101352.00;;;;10516218;28;20221;-77
2021/05/31 16:21:52;;;;;;;4.35;3.42;;;;;26.40;101343.00;;;;10438518;28;20189;-77
2021/05/31 16:26:54;;;;;;;5.50;3.78;;;;;26.10;101339.00;;;;10465138;28;20216;-77
2021/05/31 16:31:56;;;;;;;4.38;3.92;;;;;26.00;101339.00;;;;10468391;28;20243;-77
2021/05/31 16:36:59;;;;;;;4.45;3.50;;;;;25.90;101327.00;;;;10502578;28;20198;-77
2021/05/31 16:42:09;;;;;;;4.00;3.47;;;;;25.70;101329.00;;;;10468937;28;20277;-77
2021/05/31 16:47:11;;;;;;;4.55;3.45;;;;;25.50;101334.00;;;;10467248;28;20304;-77
2021/05/31 16:52:13;;;;;;;5.45;3.08;;;;;25.30;101326.00;;;;10467576;28;20193;-77
2021/05/31 16:57:15;;;;;;;5.35;3.50;;;;;25.30;101318.00;;;;10499492;28;20687;-77
2021/05/31 17:02:17;;;;;;;5.93;3.65;;;;;25.10;101314.00;;;;10525324;28;20943;-77
2021/05/31 17:07:18;;;;;;;5.30;3.13;;;;;25.00;101307.00;;;;10522992;28;20309;-77
2021/05/31 17:23:02;;;;;;;3.85;3.22;;;;;24.70;101295.00;;;;10499338;28;20212;-77
2021/05/31 17:28:04;;;;;;;5.90;3.63;;;;;24.50;101297.00;;;;10490873;28;20208;-77
2021/05/31 17:33:08;;;;;;;5.15;3.88;;;;;24.40;101293.00;;;;10523631;28;20233;-77
2021/05/31 17:38:10;;;;;;;32.00;17.85;;;;;24.30;101297.00;;;;10507245;28;20597;-77
2021/05/31 17:43:12;;;;;;;29.77;20.15;;;;;24.20;101291.00;;;;10518990;28;20221;-77
2021/05/31 17:48:14;;;;;;;6.13;4.10;;;;;24.10;101287.00;;;;10481567;28;20297;-77
2021/05/31 17:53:16;;;;;;;7.68;4.13;;;;;24.00;101301.00;;;;10448306;28;20197;-77
2021/05/31 17:58:18;;;;;;;6.15;3.95;;;;;23.90;101293.00;;;;10522216;28;20193;-77
2021/05/31 18:03:20;;;;;;;5.15;4.55;;;;;23.80;101290.00;;;;10523096;28;20304;-76
2021/05/31 18:08:22;;;;;;;5.65;3.88;;;;;23.60;101287.00;;;;10540943;28;20277;-77
2021/05/31 18:13:24;;;;;;;6.65;4.47;;;;;23.50;101290.00;;;;10489770;28;20211;-77
2021/05/31 18:18:26;;;;;;;6.82;4.68;;;;;23.30;101293.00;;;;10522576;28;20185;-77
2021/05/31 18:23:27;;;;;;;6.05;4.93;;;;;23.10;101289.00;;;;10505518;28;20248;-77
2021/05/31 18:28:32;;;;;;;4.97;4.18;;;;;22.90;101284.00;;;;10488404;28;20266;-77
2021/05/31 18:33:35;;;;;;;6.65;5.00;;;;;22.70;101283.00;;;;10487046;28;20282;-78
2021/05/31 18:38:39;;;;;;;6.30;4.70;;;;;22.60;101284.00;;;;10491001;28;20189;-78
2021/05/31 18:43:42;;;;;;;6.90;4.78;;;;;22.40;101278.00;;;;10525116;28;20238;-78
2021/05/31 18:48:44;;;;;;;5.50;4.30;;;;;22.20;101282.00;;;;10524805;28;20201;-78
2021/05/31 18:53:45;;;;;;;5.60;4.38;;;;;22.10;101274.00;;;;10501731;28;20209;-75
2021/05/31 18:58:47;;;;;;;7.70;5.20;;;;;21.90;101278.00;;;;10504762;28;20186;-78
2021/05/31 19:03:49;;;;;;;4.90;4.35;;;;;21.80;101270.00;;;;10521968;28;20196;-76
2021/05/31 19:08:52;;;;;;;8.13;4.80;;;;;21.80;101277.00;;;;10516458;28;20557;-78
2021/05/31 19:13:54;;;;;;;8.00;4.68;;;;;23.20;101280.00;;;;10513760;28;20189;-76
2021/05/31 19:18:55;;;;;;;5.63;4.85;;;;;22.80;101285.00;;;;10529882;28;20234;-76
2021/05/31 19:23:57;;;;;;;7.32;4.70;;;;;22.00;101277.00;;;;10511921;28;20200;-76
2021/05/31 19:28:59;;;;;;;5.57;5.07;;;;;21.50;101277.00;;;;10511218;28;20217;-75
2021/05/31 19:34:01;;;;;;;7.78;4.60;;;;;21.00;101277.00;;;;10496098;28;20244;-78
2021/05/31 19:39:05;;;;;;;5.93;4.78;;;;;20.60;101278.00;;;;10512869;28;20196;-77
2021/05/31 19:44:06;;;;;;;5.97;5.30;;;;;20.30;101286.00;;;;10501357;28;20529;-77
2021/05/31 19:49:09;;;;;;;7.43;5.28;;;;;20.00;101276.00;;;;10470003;28;20186;-77
2021/05/31 19:54:23;;;;;;;6.97;5.45;;;;;19.70;101282.00;;;;10487672;28;20213;-77
2021/05/31 20:04:42;;;;;;;10.77;5.18;;;;;19.30;101295.00;;;;10487031;28;20209;-77
2021/05/31 20:09:45;;;;;;;7.85;5.47;;;;;19.10;101292.00;;;;10470234;28;20194;-77
2021/05/31 20:14:47;;;;;;;7.18;5.05;;;;;18.90;101298.00;;;;10504114;28;20192;-77
2021/05/31 20:19:49;;;;;;;6.10;4.68;;;;;18.60;101293.00;;;;10485470;28;20193;-77
2021/05/31 20:24:52;;;;;;;6.07;5.22;;;;;18.30;101298.00;;;;10481040;28;20221;-77
2021/05/31 20:29:54;;;;;;;7.10;5.80;;;;;18.10;101292.00;;;;10493599;28;20647;-77
2021/05/31 20:34:56;;;;;;;8.63;5.47;;;;;18.00;101298.00;;;;10509329;28;20238;-77
2021/05/31 20:39:58;;;;;;;7.27;5.60;;;;;17.80;101296.00;;;;10493089;28;20193;-77
2021/05/31 20:45:00;;;;;;;8.40;5.43;;;;;17.60;101288.00;;;;10526485;28;20255;-77
2021/05/31 20:50:06;;;;;;;7.13;5.67;;;;;17.50;101300.00;;;;10544122;28;20185;-77
2021/05/31 20:55:09;;;;;;;8.50;5.60;;;;;17.30;101300.00;;;;10495025;28;20198;-77
2021/05/31 21:00:16;;;;;;;7.83;5.50;;;;;17.20;101301.00;;;;10466704;28;20194;-76
2021/05/31 21:05:19;;;;;;;7.73;5.73;;;;;17.10;101306.00;;;;10450298;28;20260;-77
2021/05/31 21:10:26;;;;;;;8.00;6.67;;;;;17.00;101289.00;;;;10483355;28;20197;-77
2021/05/31 21:15:28;;;;;;;8.53;6.07;;;;;17.00;101294.00;;;;10482466;28;20690;-77
2021/05/31 21:20:34;;;;;;;6.90;6.10;;;;;17.00;101297.00;;;;10476544;28;20864;-77
2021/05/31 21:25:36;;;;;;;11.17;6.20;;;;;17.00;101293.00;;;;10489130;28;20221;-77
2021/05/31 21:30:38;;;;;;;9.07;6.20;;;;;16.90;101289.00;;;;10482979;28;20193;-77
2021/05/31 21:35:41;;;;;;;10.60;5.97;;;;;16.80;101286.00;;;;10516074;28;20273;-77
2021/05/31 21:40:43;;;;;;;8.37;5.93;;;;;16.60;101293.00;;;;10505662;28;20197;-77
2021/05/31 21:45:45;;;;;;;12.87;6.80;;;;;16.50;101289.00;;;;10489498;28;20686;-78
2021/05/31 21:50:47;;;;;;;6.93;6.20;;;;;16.40;101285.00;;;;10525726;28;20193;-76
2021/05/31 21:55:49;;;;;;;8.03;6.40;;;;;16.40;101281.00;;;;10507388;28;20200;-75
2021/05/31 22:00:51;;;;;;;11.13;6.43;;;;;16.40;101286.00;;;;10474353;28;20192;-77
2021/05/31 22:05:53;;;;;;;12.00;6.67;;;;;16.30;101290.00;;;;10505654;28;20552;-75
2021/05/31 22:10:55;;;;;;;10.73;7.07;;;;;16.30;101288.00;;;;10489603;28;20242;-78
2021/05/31 22:21:13;;;;;;;8.00;7.10;;;;;16.00;101293.00;;;;10501047;28;20227;-78
2021/05/31 22:26:17;;;;;;;7.90;6.53;;;;;16.00;101298.00;;;;10488239;28;20231;-76
2021/05/31 22:31:24;;;;;;;10.80;6.90;;;;;15.90;101278.00;;;;10504993;28;20652;-76
2021/05/31 22:36:27;;;;;;;12.40;7.80;;;;;15.70;101284.00;;;;10505609;28;20220;-75
2021/05/31 23:13:14;;;;;;;8.37;6.27;;;;;15.10;101291.00;;;;10523343;28;20200;-78
2021/05/31 23:18:15;;;;;;;10.43;7.13;;;;;15.20;101295.00;;;;10490164;28;20269;-77
2021/05/31 23:23:17;;;;;;;9.30;7.27;;;;;15.10;101283.00;;;;10489462;28;20250;-77
2021/05/31 23:28:19;;;;;;;11.10;7.30;;;;;14.90;101294.00;;;;10488980;28;20674;-77
2021/05/31 23:33:21;;;;;;;8.97;7.40;;;;;14.80;101280.00;;;;10489290;28;20772;-77
2021/05/31 23:38:23;;;;;;;10.03;6.80;;;;;14.70;101285.00;;;;10540414;28;20209;-77
2021/05/31 23:43:31;;;;;;;9.43;7.17;;;;;14.50;101285.00;;;;10475264;28;20220;-77
2021/05/31 23:48:33;;;;;;;10.07;7.60;;;;;14.30;101283.00;;;;10478853;28;20248;-77
2021/05/31 23:53:35;;;;;;;11.90;8.60;;;;;14.20;101280.00;;;;10456078;28;20194;-77
2021/05/31 23:58:36;;;;;;;10.60;8.37;;;;;14.00;101273.00;;;;10529062;28;20260;-75
